Time;durP1;ratioP1;P1;durP2;ratioP2;P2;SDS_P1;SDS_P2;PMS_P1;PMS_P2;Temp;Humidity;BMP_temperature;BMP_pressure;BME280_temperature;BME280_humidity;BME280_pressure;Samples;Min_cycle;Max_cycle;Signal;HPM_P1;HPM_P2
2021/03/13 00:00:46;;;;;;;27.73;6.65;;;;;;;4.35;99.29;99823.25;6190047;28;20043;-78
2021/03/13 00:03:47;;;;;;;13.48;5.70;;;;;;;3.81;100.00;99820.31;6193171;28;20046;-79
2021/03/13 00:06:48;;;;;;;15.20;6.07;;;;;;;3.53;100.00;99806.72;6193888;28;20050;-79
2021/03/13 00:09:50;;;;;;;13.88;6.07;;;;;;;3.47;100.00;99814.75;6194127;28;20519;-79
2021/03/13 00:12:52;;;;;;;18.52;7.13;;;;;;;3.35;100.00;99787.50;6194657;28;20081;-80
2021/03/13 00:15:53;;;;;;;12.20;5.75;;;;;;;3.33;100.00;99786.72;6187813;28;20423;-80
2021/03/13 00:18:54;;;;;;;15.02;7.53;;;;;;;3.46;100.00;99805.28;6183811;28;20428;-80
2021/03/13 00:21:55;;;;;;;13.02;7.28;;;;;;;3.41;100.00;99789.88;6192596;28;20061;-81
2021/03/13 00:24:56;;;;;;;20.73;7.40;;;;;;;3.47;100.00;99774.03;6189207;28;20104;-81
2021/03/13 00:27:59;;;;;;;14.68;7.82;;;;;;;3.50;100.00;99783.47;6186081;28;20050;-80
2021/03/13 00:30:59;;;;;;;13.50;7.82;;;;;;;3.42;100.00;99772.53;6195808;28;20043;-79
2021/03/13 00:34:00;;;;;;;22.27;8.70;;;;;;;3.53;100.00;99778.97;6193226;28;20081;-81
2021/03/13 00:37:02;;;;;;;25.35;9.93;;;;;;;3.52;100.00;99782.47;6191448;28;20100;-81
2021/03/13 00:40:05;;;;;;;20.42;9.20;;;;;;;3.50;100.00;99776.53;6188412;28;20051;-81
2021/03/13 00:43:08;;;;;;;31.25;10.15;;;;;;;3.56;100.00;99773.66;6178583;28;20126;-80
2021/03/13 00:46:09;;;;;;;34.63;12.13;;;;;;;3.65;100.00;99762.06;6178207;28;20051;-81
2021/03/13 00:49:10;;;;;;;19.17;10.25;;;;;;;3.76;100.00;99759.84;6200472;28;20481;-80
2021/03/13 00:52:11;;;;;;;29.17;11.63;;;;;;;3.81;100.00;99765.72;6202521;28;20054;-81
2021/03/13 00:55:13;;;;;;;26.92;12.13;;;;;;;3.87;100.00;99761.19;6202273;28;20072;-81
2021/03/13 00:58:15;;;;;;;26.08;12.55;;;;;;;3.97;100.00;99768.53;6202164;28;20102;-81
2021/03/13 01:01:15;;;;;;;30.73;12.60;;;;;;;4.09;100.00;99767.19;6200854;28;20043;-81
2021/03/13 01:04:16;;;;;;;29.92;12.75;;;;;;;4.13;100.00;99754.88;6201985;28;20507;-81
2021/03/13 01:07:18;;;;;;;27.98;12.18;;;;;;;4.20;100.00;99751.09;6201623;28;20042;-79
2021/03/13 01:10:24;;;;;;;30.25;13.93;;;;;;;4.28;100.00;99752.47;6201698;28;20046;-80
2021/03/13 01:13:26;;;;;;;34.60;13.57;;;;;;;4.28;100.00;99749.88;6201382;28;20549;-81
2021/03/13 01:16:27;;;;;;;19.88;10.65;;;;;;;4.41;100.00;99750.19;6201345;28;20499;-81
2021/03/13 01:19:28;;;;;;;24.77;10.68;;;;;;;4.28;100.00;99738.63;6202058;28;20057;-81
2021/03/13 01:22:29;;;;;;;21.73;10.25;;;;;;;4.19;100.00;99742.47;6201418;28;20058;-81
2021/03/13 01:25:30;;;;;;;28.30;11.20;;;;;;;4.23;100.00;99735.38;6201735;28;20108;-80
2021/03/13 01:28:32;;;;;;;36.03;12.52;;;;;;;4.18;100.00;99732.97;6201746;28;20657;-81
2021/03/13 01:31:33;;;;;;;21.83;10.10;;;;;;;4.21;100.00;99730.22;6201609;28;20087;-81
2021/03/13 01:34:34;;;;;;;24.25;9.50;;;;;;;4.20;100.00;99730.31;6201344;28;20057;-80
2021/03/13 01:37:36;;;;;;;21.17;9.40;;;;;;;4.18;100.00;99722.56;6201502;28;20047;-80
2021/03/13 01:40:39;;;;;;;25.13;8.70;;;;;;;4.22;100.00;99718.06;6201619;28;20062;-79
2021/03/13 01:43:41;;;;;;;25.98;9.70;;;;;;;4.17;100.00;99710.47;6200943;28;20523;-79
2021/03/13 01:46:42;;;;;;;27.23;9.65;;;;;;;4.13;100.00;99708.91;6200756;28;20054;-79
2021/03/13 01:49:44;;;;;;;18.92;8.85;;;;;;;4.12;100.00;99708.97;6197559;28;20046;-80
2021/03/13 01:52:48;;;;;;;24.08;9.20;;;;;;;4.16;100.00;99682.78;6187618;28;20104;-79
2021/03/13 01:55:48;;;;;;;30.90;9.68;;;;;;;4.08;100.00;99684.88;6179285;28;20130;-80
2021/03/13 01:58:50;;;;;;;22.60;9.50;;;;;;;4.14;100.00;99679.41;6176433;28;20051;-80
2021/03/13 02:01:51;;;;;;;21.42;9.48;;;;;;;4.10;100.00;99677.88;6175393;28;20058;-80
2021/03/13 02:04:52;;;;;;;22.27;8.07;;;;;;;4.15;100.00;99669.88;6175604;28;20047;-79
2021/03/13 02:08:02;;;;;;;20.50;8.98;;;;;;;4.10;100.00;99666.63;6175437;28;20094;-79
2021/03/13 02:11:13;;;;;;;13.80;7.70;;;;;;;4.16;100.00;99667.19;6175474;28;20051;-80
2021/03/13 02:14:26;;;;;;;21.63;8.63;;;;;;;4.07;100.00;99660.63;6175570;28;20047;-80
2021/03/13 02:17:35;;;;;;;15.13;8.88;;;;;;;3.99;100.00;99656.69;6175633;28;20448;-80
2021/03/13 02:21:03;;;;;;;18.63;8.82;;;;;;;3.99;100.00;99646.28;6175116;28;20095;-80
2021/03/13 02:24:36;;;;;;;23.15;8.52;;;;;;;3.93;100.00;99641.38;6175323;28;20051;-80
2021/03/13 02:27:45;;;;;;;20.98;8.45;;;;;;;3.97;100.00;99641.16;6175094;28;20094;-80
2021/03/13 02:30:48;;;;;;;20.60;8.30;;;;;;;3.91;100.00;99638.84;6175158;28;20054;-80
2021/03/13 02:33:53;;;;;;;22.52;9.07;;;;;;;4.03;100.00;99633.06;6174908;28;20253;-80
2021/03/13 02:36:58;;;;;;;16.60;7.68;;;;;;;4.19;100.00;99630.66;6174759;28;20523;-80
2021/03/13 02:40:03;;;;;;;23.70;8.63;;;;;;;4.26;100.00;99623.41;6174690;28;20423;-79
2021/03/13 02:43:08;;;;;;;17.15;7.95;;;;;;;4.31;100.00;99622.31;6174482;28;20055;-80
2021/03/13 02:46:10;;;;;;;16.83;7.72;;;;;;;4.39;100.00;99616.72;6174187;28;20058;-80
2021/03/13 02:49:13;;;;;;;26.42;11.48;;;;;;;4.45;100.00;99613.00;6174560;28;20126;-80
2021/03/13 02:52:15;;;;;;;18.40;8.73;;;;;;;4.46;100.00;99605.16;6174018;28;20047;-79
2021/03/13 02:55:17;;;;;;;19.70;8.27;;;;;;;4.48;100.00;99597.25;6174325;28;20415;-80
2021/03/13 02:58:20;;;;;;;14.85;7.97;;;;;;;4.65;100.00;99592.09;6174247;28;20050;-79
2021/03/13 03:01:26;;;;;;;21.63;7.15;;;;;;;4.60;99.60;99594.09;6174215;28;20059;-79
2021/03/13 03:04:28;;;;;;;18.08;7.60;;;;;;;4.55;100.00;99588.25;6174083;28;20050;-80
2021/03/13 03:07:30;;;;;;;24.20;8.13;;;;;;;4.56;100.00;99582.97;6174235;28;20043;-80
2021/03/13 03:10:34;;;;;;;21.70;8.23;;;;;;;4.66;100.00;99577.34;6174136;28;20059;-72
2021/03/13 03:13:36;;;;;;;18.33;7.80;;;;;;;4.67;99.84;99558.19;6173730;28;20062;-73
2021/03/13 03:16:40;;;;;;;19.35;7.57;;;;;;;4.61;99.52;99546.34;6173642;28;20518;-72
2021/03/13 03:19:43;;;;;;;14.85;6.78;;;;;;;4.57;100.00;99548.22;6173584;28;20443;-72
2021/03/13 03:22:44;;;;;;;17.45;8.00;;;;;;;4.64;100.00;99546.19;6172879;28;20496;-72
2021/03/13 03:25:52;;;;;;;20.45;7.40;;;;;;;4.70;98.56;99537.25;6175066;28;20094;-72
2021/03/13 03:28:53;;;;;;;16.95;6.85;;;;;;;4.67;97.81;99534.78;6183557;28;20054;-74
2021/03/13 03:31:54;;;;;;;20.08;7.20;;;;;;;4.62;98.16;99524.59;6183334;28;20057;-72
2021/03/13 03:34:55;;;;;;;25.40;9.25;;;;;;;4.50;99.06;99525.22;6173518;28;20050;-73
2021/03/13 03:37:59;;;;;;;14.65;6.93;;;;;;;4.66;98.64;99523.53;6173517;28;20081;-72
2021/03/13 03:41:00;;;;;;;22.83;7.95;;;;;;;4.57;98.92;99514.41;6173472;28;20120;-72
2021/03/13 03:44:06;;;;;;;22.77;8.85;;;;;;;4.59;99.27;99514.34;6173218;28;20055;-71
2021/03/13 03:47:10;;;;;;;18.92;7.13;;;;;;;4.53;98.89;99505.06;6173471;28;20488;-72
2021/03/13 03:50:11;;;;;;;14.00;6.53;;;;;;;4.57;99.09;99493.59;6173164;28;20736;-72
2021/03/13 03:53:17;;;;;;;21.65;7.82;;;;;;;4.55;99.72;99498.03;6173244;28;20062;-72
2021/03/13 03:56:19;;;;;;;19.00;6.00;;;;;;;4.74;97.80;99489.34;6173005;28;20121;-72
2021/03/13 03:59:22;;;;;;;27.02;6.80;;;;;;;4.68;98.83;99487.88;6173348;28;20055;-71
2021/03/13 04:02:25;;;;;;;21.77;6.82;;;;;;;4.76;98.22;99482.28;6172943;28;20051;-72
2021/03/13 04:05:27;;;;;;;22.25;7.15;;;;;;;4.72;97.99;99481.59;6173308;28;20054;-72
2021/03/13 04:08:30;;;;;;;19.20;6.32;;;;;;;4.83;97.88;99476.69;6178289;28;20061;-72
2021/03/13 04:11:32;;;;;;;24.85;5.63;;;;;;;4.85;97.29;99463.59;6221077;28;20053;-72
2021/03/13 04:14:33;;;;;;;18.05;6.38;;;;;;;4.93;96.61;99461.47;6203691;28;20046;-72
2021/03/13 04:17:36;;;;;;;18.25;6.03;;;;;;;4.81;97.42;99449.06;6196922;28;20526;-72
2021/03/13 04:20:38;;;;;;;18.05;6.40;;;;;;;4.99;97.60;99442.06;6197115;28;20054;-71
2021/03/13 04:23:43;;;;;;;15.55;5.05;;;;;;;4.96;96.55;99437.88;6196867;28;20058;-71
2021/03/13 04:26:45;;;;;;;15.65;5.68;;;;;;;5.07;97.06;99442.53;6197064;28;20046;-72
2021/03/13 04:29:46;;;;;;;13.10;5.53;;;;;;;4.94;96.14;99429.28;6197135;28;20043;-72
2021/03/13 04:32:52;;;;;;;12.60;4.22;;;;;;;5.12;95.77;99411.88;6196948;28;20050;-71
2021/03/13 04:35:54;;;;;;;13.90;5.57;;;;;;;5.01;97.85;99414.22;6198831;28;20054;-72
2021/03/13 04:38:57;;;;;;;9.98;3.83;;;;;;;4.84;97.94;99405.50;6201445;28;20057;-72
2021/03/13 04:41:58;;;;;;;17.45;3.97;;;;;;;4.90;99.61;99399.13;6200656;28;20594;-72
2021/03/13 04:44:59;;;;;;;18.13;3.80;;;;;;;4.89;99.77;99391.41;6201131;28;20113;-71
2021/03/13 04:48:02;;;;;;;15.50;4.28;;;;;;;4.86;99.42;99391.56;6200942;28;20050;-72
2021/03/13 04:51:05;;;;;;;16.73;3.80;;;;;;;4.95;99.51;99380.66;6200528;28;20054;-72
2021/03/13 04:54:07;;;;;;;17.05;4.07;;;;;;;4.82;100.00;99370.91;6200755;28;20050;-72
2021/03/13 04:57:10;;;;;;;9.38;3.08;;;;;;;4.74;100.00;99367.03;6200709;28;20403;-72
2021/03/13 05:00:14;;;;;;;16.02;2.83;;;;;;;4.73;100.00;99360.97;6200794;28;20054;-72
2021/03/13 05:03:16;;;;;;;15.43;3.20;;;;;;;4.69;100.00;99358.63;6200190;28;20062;-72
2021/03/13 05:06:17;;;;;;;9.63;2.95;;;;;;;4.78;100.00;99358.16;6200723;28;20046;-72
2021/03/13 05:09:18;;;;;;;15.82;3.42;;;;;;;4.65;100.00;99347.53;6200376;28;20545;-73
2021/03/13 05:12:19;;;;;;;10.93;3.00;;;;;;;4.66;100.00;99337.94;6200475;28;20530;-73
2021/03/13 05:15:20;;;;;;;9.93;2.45;;;;;;;4.74;100.00;99335.81;6200359;28;20054;-73
2021/03/13 05:18:22;;;;;;;7.35;2.17;;;;;;;4.60;100.00;99317.47;6200395;28;20062;-73
2021/03/13 05:21:23;;;;;;;5.50;2.38;;;;;;;4.54;100.00;99314.25;6200047;28;20058;-73
2021/03/13 05:24:24;;;;;;;4.93;2.20;;;;;;;4.49;100.00;99310.19;6199997;28;20042;-73
2021/03/13 05:27:25;;;;;;;10.80;3.15;;;;;;;4.42;100.00;99308.84;6200159;28;20537;-73
2021/03/13 05:30:26;;;;;;;5.35;2.33;;;;;;;4.46;100.00;99290.41;6199922;28;20500;-73
2021/03/13 05:33:28;;;;;;;4.60;2.15;;;;;;;4.41;100.00;99287.19;6199982;28;20046;-73
2021/03/13 05:36:29;;;;;;;6.68;2.50;;;;;;;4.50;100.00;99268.53;6199703;28;20407;-73
2021/03/13 05:39:30;;;;;;;6.78;2.53;;;;;;;4.44;100.00;99265.38;6200021;28;20050;-73
2021/03/13 05:42:31;;;;;;;5.00;2.15;;;;;;;4.55;100.00;99263.91;6199495;28;20408;-74
2021/03/13 05:45:32;;;;;;;3.67;1.77;;;;;;;4.42;100.00;99254.22;6199114;28;20061;-74
2021/03/13 05:48:35;;;;;;;3.67;2.03;;;;;;;4.29;100.00;99244.44;6199485;28;20046;-73
2021/03/13 05:51:38;;;;;;;4.63;2.10;;;;;;;4.30;100.00;99235.72;6199220;28;20208;-73
2021/03/13 05:54:39;;;;;;;3.55;1.63;;;;;;;4.45;100.00;99226.31;6199254;28;20050;-73
2021/03/13 05:57:40;;;;;;;6.25;2.05;;;;;;;4.45;100.00;99218.50;6199273;28;20396;-73
2021/03/13 06:00:41;;;;;;;6.40;2.10;;;;;;;4.38;100.00;99203.28;6199274;28;20054;-72
2021/03/13 06:03:43;;;;;;;3.67;1.52;;;;;;;4.46;100.00;99194.16;6199079;28;20086;-73
2021/03/13 06:06:45;;;;;;;8.70;1.98;;;;;;;4.40;100.00;99201.44;6199282;28;20135;-73
2021/03/13 06:09:46;;;;;;;4.18;1.58;;;;;;;4.35;100.00;99175.66;6198809;28;20057;-73
2021/03/13 06:12:47;;;;;;;3.15;1.38;;;;;;;4.45;100.00;99174.28;6198998;28;20392;-73
2021/03/13 06:15:48;;;;;;;5.55;1.50;;;;;;;4.46;100.00;99169.91;6198850;28;20129;-73
2021/03/13 06:18:56;;;;;;;4.45;1.60;;;;;;;4.45;100.00;99163.88;6199221;28;20061;-73
2021/03/13 06:21:57;;;;;;;2.10;1.40;;;;;;;4.37;100.00;99157.41;6186237;28;20105;-74
2021/03/13 06:25:19;;;;;;;2.60;1.33;;;;;;;4.38;100.00;99146.06;6174871;28;20050;-73
2021/03/13 06:28:20;;;;;;;2.83;1.30;;;;;;;4.37;100.00;99134.00;6174615;28;20083;-74
2021/03/13 06:31:25;;;;;;;3.00;1.05;;;;;;;4.37;100.00;99121.84;6174524;28;20141;-73
2021/03/13 06:34:27;;;;;;;2.15;1.20;;;;;;;4.28;100.00;99111.94;6174672;28;20117;-73
2021/03/13 06:37:30;;;;;;;2.10;1.42;;;;;;;4.47;100.00;99106.56;6197326;28;20043;-73
2021/03/13 06:40:34;;;;;;;2.90;1.33;;;;;;;4.44;100.00;99104.97;6198372;28;20054;-73
2021/03/13 06:43:35;;;;;;;0.98;0.90;;;;;;;4.38;100.00;99081.91;6198342;28;20081;-74
2021/03/13 06:46:35;;;;;;;1.25;1.05;;;;;;;4.48;100.00;99071.81;6198199;28;20050;-73
2021/03/13 06:49:37;;;;;;;1.55;1.05;;;;;;;4.41;100.00;99068.75;6198430;28;20129;-74
2021/03/13 06:52:40;;;;;;;1.02;0.90;;;;;;;4.46;100.00;99058.91;6198153;28;20077;-74
2021/03/13 06:55:41;;;;;;;0.80;0.80;;;;;;;4.58;100.00;99039.16;6218254;23;20042;-79
2021/03/13 06:58:42;;;;;;;1.17;0.70;;;;;;;4.62;100.00;99027.66;6197172;28;20061;-79
2021/03/13 07:01:43;;;;;;;1.52;1.08;;;;;;;4.55;100.00;99027.19;6197639;28;20499;-79
2021/03/13 07:04:45;;;;;;;2.15;0.75;;;;;;;4.57;100.00;99014.91;6176690;28;20102;-80
2021/03/13 07:07:46;;;;;;;1.25;0.70;;;;;;;4.62;100.00;99004.25;6173813;28;20054;-79
2021/03/13 07:10:47;;;;;;;0.57;0.52;;;;;;;4.67;100.00;98986.63;6173737;28;20046;-80
2021/03/13 07:13:50;;;;;;;2.78;0.90;;;;;;;4.66;100.00;98978.91;6173850;28;20077;-79
2021/03/13 07:16:52;;;;;;;0.65;0.65;;;;;;;4.77;100.00;98982.56;6183266;28;20659;-79
2021/03/13 07:19:53;;;;;;;1.33;0.80;;;;;;;4.71;100.00;98967.31;6174078;28;20055;-79
2021/03/13 07:22:56;;;;;;;1.17;0.70;;;;;;;4.79;100.00;98967.69;6173332;28;20070;-79
2021/03/13 07:25:57;;;;;;;0.68;0.68;;;;;;;4.65;100.00;98962.47;6173541;28;20524;-79
2021/03/13 07:29:00;;;;;;;1.00;0.80;;;;;;;4.65;100.00;98956.41;6173579;28;20047;-79
2021/03/13 07:32:02;;;;;;;3.75;0.68;;;;;;;4.76;100.00;98949.66;6173488;28;20051;-79
2021/03/13 07:35:09;;;;;;;5.25;2.85;;;;;;;4.80;100.00;98937.31;6173465;28;20047;-80
2021/03/13 07:38:14;;;;;;;0.63;0.63;;;;;;;4.80;100.00;98927.72;6173662;28;20078;-79
2021/03/13 07:41:17;;;;;;;0.50;0.40;;;;;;;4.87;100.00;98922.19;6173328;28;20492;-79
2021/03/13 07:44:19;;;;;;;0.77;0.63;;;;;;;4.82;100.00;98918.09;6173476;28;20059;-79
2021/03/13 07:47:20;;;;;;;3.47;0.70;;;;;;;4.98;100.00;98899.78;6173440;28;20097;-79
2021/03/13 07:50:22;;;;;;;0.88;0.50;;;;;;;5.00;100.00;98890.13;6173298;28;20432;-78
2021/03/13 07:53:23;;;;;;;0.40;0.40;;;;;;;5.08;100.00;98887.03;6172992;28;20159;-78
2021/03/13 07:56:25;;;;;;;2.40;0.50;;;;;;;5.00;100.00;98886.69;6173351;28;20050;-79
2021/03/13 07:59:43;;;;;;;0.65;0.38;;;;;;;5.12;100.00;98878.13;6183754;28;20109;-78
2021/03/13 08:02:45;;;;;;;0.50;0.30;;;;;;;5.26;100.00;98862.47;6192431;28;20046;-77
2021/03/13 08:05:56;;;;;;;0.45;0.40;;;;;;;5.32;100.00;98866.50;6188562;28;20494;-77
2021/03/13 08:08:57;;;;;;;0.68;0.50;;;;;;;5.37;100.00;98858.38;6173669;28;20074;-77
2021/03/13 08:11:59;;;;;;;3.72;0.65;;;;;;;5.35;100.00;98850.66;6177681;28;20059;-77
2021/03/13 08:15:00;;;;;;;0.32;0.32;;;;;;;5.47;100.00;98842.06;6177387;28;20412;-77
2021/03/13 08:18:01;;;;;;;0.32;0.32;;;;;;;5.52;100.00;98839.19;6177858;28;20626;-77
2021/03/13 08:21:42;;;;;;;1.23;0.50;;;;;;;5.55;100.00;98825.97;6177306;28;20066;-77
2021/03/13 08:24:45;;;;;;;0.63;0.35;;;;;;;5.61;100.00;98828.19;6177503;28;20055;-77
2021/03/13 08:27:46;;;;;;;0.22;0.22;;;;;;;5.72;100.00;98810.09;6177276;28;20506;-78
2021/03/13 08:30:47;;;;;;;1.42;0.47;;;;;;;5.75;100.00;98809.88;6186456;28;20077;-77
2021/03/13 08:33:48;;;;;;;1.45;0.10;;;;;;;5.89;100.00;98814.19;6201110;28;20054;-77
2021/03/13 08:36:51;;;;;;;0.52;0.40;;;;;;;5.79;100.00;98797.50;6201388;28;20050;-77
2021/03/13 08:39:51;;;;;;;2.85;0.40;;;;;;;5.96;100.00;98791.22;6201207;28;20396;-76
2021/03/13 08:42:52;;;;;;;0.70;0.38;;;;;;;6.09;100.00;98799.91;6201044;28;20058;-77
2021/03/13 08:45:53;;;;;;;0.82;0.43;;;;;;;6.23;100.00;98785.94;6200983;28;20328;-76
2021/03/13 08:48:56;;;;;;;3.13;0.65;;;;;;;6.20;100.00;98791.34;6201213;28;20050;-76
2021/03/13 08:52:23;;;;;;;2.05;0.40;;;;;;;6.13;100.00;98800.50;6200750;28;20518;-77
2021/03/13 08:55:31;;;;;;;2.83;0.40;;;;;;;6.17;100.00;98799.38;6200825;28;20507;-77
2021/03/13 08:58:40;;;;;;;0.32;0.28;;;;;;;6.10;100.00;98830.25;6200715;28;20474;-78
2021/03/13 09:01:42;;;;;;;1.55;0.40;;;;;;;6.27;100.00;98829.97;6200683;28;20502;-77
2021/03/13 09:04:45;;;;;;;1.00;0.40;;;;;;;6.11;100.00;98818.88;6200660;28;20055;-78
2021/03/13 09:07:49;;;;;;;1.60;0.43;;;;;;;5.95;100.00;98847.75;6200728;28;20054;-80
2021/03/13 09:10:50;;;;;;;1.00;0.50;;;;;;;5.88;100.00;98856.00;6200287;28;20050;-80
2021/03/13 09:13:58;;;;;;;2.60;0.70;;;;;;;5.73;100.00;98882.13;6200337;28;20054;-80
2021/03/13 09:17:07;;;;;;;0.70;0.40;;;;;;;5.56;100.00;98888.41;6200546;28;20065;-79
2021/03/13 09:20:09;;;;;;;0.63;0.43;;;;;;;5.43;99.84;98876.22;6199367;28;20404;-80
2021/03/13 09:23:11;;;;;;;1.88;0.50;;;;;;;5.36;100.00;98875.78;6199296;28;20050;-80
2021/03/13 09:26:12;;;;;;;4.70;0.70;;;;;;;5.43;100.00;98877.06;6197305;28;20050;-81
2021/03/13 09:29:13;;;;;;;2.03;0.55;;;;;;;5.38;98.79;98879.13;6189680;28;20042;-80
2021/03/13 09:32:14;;;;;;;3.60;0.65;;;;;;;5.46;97.39;98887.31;6177423;28;20039;-79
2021/03/13 09:35:17;;;;;;;2.72;0.60;;;;;;;5.38;98.44;98880.91;6185778;28;20049;-80
2021/03/13 09:38:20;;;;;;;1.60;0.70;;;;;;;5.41;95.64;98876.34;6186122;28;20038;-80
2021/03/13 09:41:21;;;;;;;2.63;0.60;;;;;;;5.44;95.05;98877.91;6186868;28;20697;-80
2021/03/13 09:44:31;;;;;;;2.05;0.90;;;;;;;5.58;94.34;98867.44;6184701;28;20262;-81
2021/03/13 09:47:35;;;;;;;2.35;0.70;;;;;;;5.53;93.33;98865.13;6177917;28;20057;-78
2021/03/13 09:50:39;;;;;;;2.55;0.50;;;;;;;5.62;92.15;98884.56;6175198;28;20082;-79
2021/03/13 09:53:42;;;;;;;5.20;0.80;;;;;;;5.71;92.90;98863.13;6175179;28;20046;-80
2021/03/13 09:56:43;;;;;;;3.60;0.90;;;;;;;5.75;91.68;98862.00;6175227;28;20047;-80
2021/03/13 09:59:44;;;;;;;3.72;0.70;;;;;;;5.96;90.39;98859.00;6175368;28;20061;-78
2021/03/13 10:02:45;;;;;;;1.95;0.70;;;;;;;5.99;89.25;98857.00;6175002;28;20051;-78
2021/03/13 10:05:52;;;;;;;15.57;7.47;;;;;;;6.17;90.23;98859.34;6175048;28;20051;-79
2021/03/13 10:08:58;;;;;;;5.07;0.70;;;;;;;6.17;90.91;98861.97;6180302;28;20058;-78
2021/03/13 10:12:04;;;;;;;3.90;0.95;;;;;;;6.09;92.15;98857.28;6196535;28;20133;-79
2021/03/13 10:15:14;;;;;;;2.35;1.00;;;;;;;6.20;92.24;98853.94;6199140;28;20050;-78
2021/03/13 10:18:16;;;;;;;3.42;0.95;;;;;;;6.19;91.83;98847.91;6198782;28;20499;-76
2021/03/13 10:21:17;;;;;;;2.47;0.88;;;;;;;6.43;90.91;98855.88;6198713;28;20053;-75
2021/03/13 10:24:18;;;;;;;2.55;0.70;;;;;;;6.50;89.34;98854.53;6197161;28;20057;-76
2021/03/13 10:27:28;;;;;;;7.38;1.33;;;;;;;6.45;90.11;98855.75;6196223;28;20042;-77
2021/03/13 10:30:29;;;;;;;4.25;1.20;;;;;;;6.50;88.80;98849.31;6194883;28;20185;-76
2021/03/13 10:33:31;;;;;;;9.85;1.70;;;;;;;6.61;89.21;98846.81;6197396;28;20070;-75
2021/03/13 10:36:42;;;;;;;4.82;1.02;;;;;;;6.71;87.97;98846.19;6198031;28;20046;-75
2021/03/13 10:39:48;;;;;;;5.22;1.08;;;;;;;6.56;89.10;98845.44;6197173;28;20423;-75
2021/03/13 10:42:49;;;;;;;9.55;1.15;;;;;;;6.58;86.39;98835.72;6198185;28;20064;-75
2021/03/13 10:46:15;;;;;;;5.65;1.30;;;;;;;6.44;89.15;98843.66;6198594;28;20490;-75
2021/03/13 10:49:25;;;;;;;6.68;1.33;;;;;;;6.42;86.42;98842.94;6198192;28;20050;-75
2021/03/13 10:52:29;;;;;;;6.03;1.33;;;;;;;6.55;86.48;98854.22;6197978;28;20096;-75
2021/03/13 10:55:40;;;;;;;9.93;1.48;;;;;;;6.52;86.51;98834.38;6187798;28;20512;-77
2021/03/13 10:58:47;;;;;;;7.95;1.38;;;;;;;6.52;85.70;98821.31;6190219;28;20046;-75
2021/03/13 11:01:48;;;;;;;6.72;1.55;;;;;;;6.82;84.34;98815.81;6190719;28;20093;-75
2021/03/13 11:04:49;;;;;;;6.53;1.45;;;;;;;6.93;85.93;98816.81;6173795;28;20050;-76
2021/03/13 11:07:50;;;;;;;6.65;1.30;;;;;;;7.22;83.85;98812.16;6173623;28;20050;-73
2021/03/13 11:10:53;;;;;;;10.93;2.55;;;;;;;7.36;80.77;98799.81;6184557;28;20141;-73
2021/03/13 11:13:54;;;;;;;9.73;2.53;;;;;;;7.49;81.07;98785.84;6197606;28;20503;-74
2021/03/13 11:16:55;;;;;;;10.57;1.58;;;;;;;7.61;78.04;98777.97;6197721;28;20082;-74
2021/03/13 11:19:56;;;;;;;6.53;1.73;;;;;;;7.89;78.43;98779.38;6197498;28;20054;-72
2021/03/13 11:22:57;;;;;;;9.32;1.50;;;;;;;8.13;74.95;98812.53;6197497;28;20507;-74
2021/03/13 11:25:59;;;;;;;10.75;1.52;;;;;;;8.21;75.39;98764.84;6197568;28;20054;-73
2021/03/13 11:29:00;;;;;;;8.65;1.33;;;;;;;8.21;75.50;98775.31;6177351;28;20054;-71
2021/03/13 11:32:01;;;;;;;6.43;2.60;;;;;;;8.32;72.72;98775.34;6173276;28;20058;-72
2021/03/13 11:35:02;;;;;;;7.35;1.67;;;;;;;8.31;75.54;98764.06;6173120;28;20051;-74
2021/03/13 11:38:03;;;;;;;9.40;1.75;;;;;;;8.30;76.15;98766.78;6172108;28;20062;-75
2021/03/13 11:41:06;;;;;;;7.78;1.50;;;;;;;8.25;73.81;98748.81;6171622;28;20090;-74
2021/03/13 11:44:07;;;;;;;11.82;1.60;;;;;;;8.21;72.46;98741.31;6174306;28;20101;-74
2021/03/13 11:47:07;;;;;;;7.97;1.48;;;;;;;7.86;72.03;98752.66;6178194;28;20471;-74
2021/03/13 11:50:11;;;;;;;10.25;1.73;;;;;;;7.74;71.65;98754.38;6177651;28;20055;-77
2021/03/13 11:53:12;;;;;;;13.18;1.92;;;;;;;7.52;74.39;98781.25;6176743;28;20600;-76
2021/03/13 11:56:13;;;;;;;8.75;1.40;;;;;;;7.34;77.11;98846.09;6177589;28;20062;-70
2021/03/13 11:59:14;;;;;;;4.90;0.70;;;;;;;5.39;85.58;98848.69;6178073;28;20074;-78
2021/03/13 12:02:16;;;;;;;5.75;0.80;;;;;;;4.26;94.63;98823.41;6177674;28;20130;-78
2021/03/13 12:05:17;;;;;;;3.38;0.60;;;;;;;4.01;99.32;98804.97;6178026;28;20158;-80
2021/03/13 12:08:18;;;;;;;2.35;0.80;;;;;;;4.29;100.00;98817.19;6177747;28;20482;-78
2021/03/13 12:11:20;;;;;;;5.38;0.90;;;;;;;4.56;100.00;98799.94;6177545;28;20101;-78
2021/03/13 12:14:21;;;;;;;4.85;0.85;;;;;;;4.60;100.00;98799.78;6177644;28;20050;-78
2021/03/13 12:17:22;;;;;;;2.97;0.60;;;;;;;4.80;100.00;98796.78;6177878;28;20138;-79
2021/03/13 12:20:23;;;;;;;2.65;0.80;;;;;;;5.05;100.00;98783.13;6177645;28;20053;-79
2021/03/13 12:23:23;;;;;;;7.78;1.45;;;;;;;5.41;100.00;98776.53;6177175;28;20050;-80
2021/03/13 12:26:25;;;;;;;7.50;1.15;;;;;;;6.12;97.42;98775.38;6177309;28;20055;-81
2021/03/13 12:29:27;;;;;;;9.88;1.40;;;;;;;6.44;93.86;98768.81;6177250;28;20043;-81
2021/03/13 12:32:28;;;;;;;8.90;1.48;;;;;;;6.97;94.64;98763.47;6177145;28;20050;-81
2021/03/13 12:35:28;;;;;;;5.05;1.30;;;;;;;7.32;87.83;98745.28;6183159;28;20053;-79
2021/03/13 12:38:29;;;;;;;11.40;3.08;;;;;;;7.74;90.62;98756.16;6201029;28;20124;-80
2021/03/13 12:41:31;;;;;;;8.27;1.42;;;;;;;7.95;85.94;98746.72;6200829;28;20133;-80
2021/03/13 12:44:32;;;;;;;17.73;2.70;;;;;;;7.84;81.47;98759.75;6201184;28;20047;-80
2021/03/13 12:47:33;;;;;;;8.13;1.83;;;;;;;7.53;81.11;98759.38;6201226;28;20085;-81
2021/03/13 12:50:34;;;;;;;6.43;1.33;;;;;;;7.30;80.85;98828.97;6201234;28;20651;-70
2021/03/13 12:53:35;;;;;;;6.00;1.02;;;;;;;6.50;81.94;98823.22;6200415;28;20112;-78
2021/03/13 12:56:37;;;;;;;3.33;0.65;;;;;;;6.21;82.28;98777.38;6218582;23;20058;-70
2021/03/13 12:59:38;;;;;;;4.30;0.70;;;;;;;6.00;85.26;98783.09;6189591;28;20619;-71
2021/03/13 13:02:38;;;;;;;5.40;0.77;;;;;;;5.96;82.49;98797.25;6177413;28;20071;-70
2021/03/13 13:05:39;;;;;;;4.07;0.98;;;;;;;6.23;81.99;98783.34;6200803;28;20051;-70
2021/03/13 13:08:40;;;;;;;6.22;0.73;;;;;;;6.23;82.94;98781.56;6200245;28;20043;-71
2021/03/13 13:11:42;;;;;;;9.05;2.08;;;;;;;6.15;84.51;98790.84;6200622;28;20046;-70
2021/03/13 13:14:44;;;;;;;4.18;1.10;;;;;;;6.14;86.90;98774.34;6200246;28;20050;-72
2021/03/13 13:17:45;;;;;;;3.90;0.80;;;;;;;6.10;86.80;98778.09;6200328;28;20049;-70
2021/03/13 13:20:47;;;;;;;4.70;1.05;;;;;;;6.02;86.81;98778.59;6200042;28;20050;-71
2021/03/13 13:23:47;;;;;;;5.32;1.75;;;;;;;6.09;86.51;98784.25;6199929;28;20062;-70
2021/03/13 13:26:49;;;;;;;5.40;1.20;;;;;;;6.06;88.09;98780.06;6200258;28;20046;-70
2021/03/13 13:29:50;;;;;;;5.35;0.95;;;;;;;6.09;85.13;98773.81;6193634;28;20050;-70
2021/03/13 13:32:51;;;;;;;9.27;1.42;;;;;;;6.11;86.20;98774.56;6183930;28;20484;-71
2021/03/13 13:35:52;;;;;;;7.78;1.50;;;;;;;6.56;84.77;98760.16;6185749;28;20064;-71
2021/03/13 13:38:53;;;;;;;9.93;1.60;;;;;;;6.88;82.70;98756.25;6187802;28;20054;-70
2021/03/13 13:41:55;;;;;;;8.40;2.08;;;;;;;7.33;81.20;98746.94;6199521;28;20086;-70
2021/03/13 13:44:55;;;;;;;5.82;1.10;;;;;;;7.89;78.66;98723.63;6199621;28;20513;-70
2021/03/13 13:47:57;;;;;;;10.50;1.85;;;;;;;8.09;76.71;98741.28;6199704;28;20050;-71
2021/03/13 13:50:57;;;;;;;8.52;1.23;;;;;;;8.23;75.43;98724.56;6199456;28;20491;-70
2021/03/13 13:53:58;;;;;;;9.65;1.27;;;;;;;8.23;73.53;98735.03;6199182;28;20050;-70
2021/03/13 13:57:00;;;;;;;10.13;1.30;;;;;;;7.91;75.64;98741.84;6198588;28;20102;-70
2021/03/13 14:00:01;;;;;;;4.80;1.35;;;;;;;7.48;78.13;98750.22;6199483;28;20050;-70
2021/03/13 14:03:02;;;;;;;8.77;1.67;;;;;;;7.18;78.01;98750.66;6199116;28;20125;-69
2021/03/13 14:06:03;;;;;;;9.77;1.58;;;;;;;7.10;78.06;98756.44;6199275;28;20162;-73
2021/03/13 14:09:05;;;;;;;9.98;1.75;;;;;;;7.04;81.36;98755.09;6198568;28;20050;-69
2021/03/13 14:12:08;;;;;;;7.10;1.10;;;;;;;7.01;80.83;98764.91;6198777;28;20050;-69
2021/03/13 14:15:11;;;;;;;10.90;1.70;;;;;;;6.91;81.81;98766.50;6199018;28;20054;-68
2021/03/13 14:18:12;;;;;;;10.80;1.77;;;;;;;6.58;85.76;98767.88;6199147;28;20047;-69
2021/03/13 14:21:13;;;;;;;6.80;1.60;;;;;;;6.58;90.55;98804.41;6198661;28;20507;-70